createdAt,value
2022-09-28T00:01:08.659Z,7.43
2022-09-28T00:03:38.327Z,4.73
2022-09-28T00:06:07.102Z,6.13
2022-09-28T00:08:35.308Z,4.47
2022-09-28T00:11:05.216Z,4.50
2022-09-28T00:13:33.280Z,4.30
2022-09-28T00:16:02.248Z,5.33
2022-09-28T00:18:30.124Z,5.17
2022-09-28T00:21:02.595Z,4.40
2022-09-28T00:23:30.354Z,4.97
2022-09-28T00:25:58.212Z,4.87
2022-09-28T00:28:27.708Z,4.77
2022-09-28T00:30:56.729Z,4.77
2022-09-28T00:33:24.732Z,5.07
2022-09-28T00:35:59.317Z,6.03
2022-09-28T00:38:28.972Z,6.77
2022-09-28T00:40:57.236Z,7.00
2022-09-28T00:43:25.259Z,6.97
2022-09-28T00:45:58.399Z,6.33
2022-09-28T00:48:28.848Z,6.50
2022-09-28T00:50:58.063Z,6.50
2022-09-28T00:53:27.981Z,7.57
2022-09-28T00:55:57.508Z,7.53
2022-09-28T00:58:27.659Z,6.20
2022-09-28T01:00:58.999Z,7.20
2022-09-28T01:03:27.191Z,6.97
2022-09-28T01:05:55.959Z,8.80
2022-09-28T01:08:25.208Z,9.90
2022-09-28T01:10:53.069Z,12.87
2022-09-28T01:13:21.640Z,13.07
2022-09-28T01:15:54.955Z,10.43
2022-09-28T01:18:28.432Z,9.97
2022-09-28T01:20:58.565Z,10.93
2022-09-28T01:23:44.255Z,10.10
2022-09-28T01:26:33.285Z,13.50
2022-09-28T01:29:05.675Z,17.83
2022-09-28T01:31:35.313Z,11.57
2022-09-28T01:34:05.203Z,14.70
2022-09-28T01:36:36.864Z,12.93
2022-09-28T01:39:07.338Z,16.50
2022-09-28T01:41:38.359Z,12.47
2022-09-28T01:44:09.458Z,13.50
2022-09-28T01:46:42.279Z,15.10
2022-09-28T01:49:12.237Z,16.57
2022-09-28T01:51:42.402Z,14.63
2022-09-28T01:54:13.409Z,14.27
2022-09-28T01:56:43.337Z,15.50
2022-09-28T01:59:15.157Z,18.03
2022-09-28T02:01:46.054Z,15.30
2022-09-28T02:04:16.098Z,14.03
2022-09-28T02:06:47.376Z,13.57
2022-09-28T02:09:18.429Z,17.60
2022-09-28T02:11:49.325Z,14.27
2022-09-28T02:14:19.807Z,11.97
2022-09-28T02:16:48.902Z,19.43
2022-09-28T02:19:18.109Z,15.77
2022-09-28T02:21:49.463Z,11.60
2022-09-28T02:24:21.669Z,15.10
2022-09-28T02:26:51.727Z,14.97
2022-09-28T02:29:21.133Z,13.93
2022-09-28T02:31:49.255Z,14.07
2022-09-28T02:34:17.656Z,16.87
2022-09-28T02:36:47.159Z,21.03
2022-09-28T02:39:16.419Z,14.40
2022-09-28T02:41:51.187Z,16.40
2022-09-28T02:44:29.631Z,24.63
2022-09-28T02:46:59.807Z,20.20
2022-09-28T02:49:32.249Z,14.70
2022-09-28T02:52:10.569Z,18.10
2022-09-28T02:54:45.557Z,18.20
2022-09-28T02:57:17.124Z,14.20
2022-09-28T02:59:49.317Z,16.40
2022-09-28T03:02:22.573Z,18.40
2022-09-28T03:04:56.618Z,17.13
2022-09-28T03:07:27.940Z,20.40
2022-09-28T03:10:00.690Z,14.17
2022-09-28T03:12:30.187Z,14.37
2022-09-28T03:15:09.882Z,17.17
2022-09-28T03:17:37.960Z,14.13
2022-09-28T03:20:06.322Z,14.80
2022-09-28T03:22:34.184Z,15.33
2022-09-28T03:25:01.966Z,18.43
2022-09-28T03:27:30.021Z,16.43
2022-09-28T03:29:58.271Z,18.83
2022-09-28T03:32:27.820Z,15.43
2022-09-28T03:34:55.968Z,17.53
2022-09-28T03:37:24.186Z,17.30
2022-09-28T03:39:52.078Z,22.20
2022-09-28T03:42:20.065Z,17.43
2022-09-28T03:44:48.094Z,17.67
2022-09-28T03:47:17.949Z,25.67
2022-09-28T03:49:47.487Z,21.13
2022-09-28T03:52:15.625Z,22.53
2022-09-28T03:54:48.312Z,21.87
2022-09-28T03:57:17.395Z,15.83
2022-09-28T03:59:45.498Z,12.13
2022-09-28T04:02:13.406Z,15.47
2022-09-28T04:04:41.569Z,14.03
2022-09-28T04:07:10.933Z,11.77
2022-09-28T04:09:38.827Z,13.13
2022-09-28T04:12:07.985Z,14.47
2022-09-28T04:14:35.754Z,15.80
2022-09-28T04:17:03.819Z,13.23
2022-09-28T04:19:31.914Z,14.33
2022-09-28T04:22:00.814Z,14.53
2022-09-28T04:24:29.850Z,14.27
2022-09-28T04:27:17.849Z,13.47
2022-09-28T04:29:44.580Z,14.03
2022-09-28T04:32:13.199Z,14.10
2022-09-28T04:34:44.189Z,16.47
2022-09-28T04:37:13.943Z,16.27
2022-09-28T04:39:48.178Z,16.13
2022-09-28T04:42:17.151Z,16.73
2022-09-28T04:44:45.161Z,18.17
2022-09-28T04:47:13.072Z,16.83
2022-09-28T04:49:40.776Z,16.60
2022-09-28T04:52:08.846Z,17.60
2022-09-28T04:54:36.696Z,14.53
2022-09-28T04:57:06.280Z,14.23
2022-09-28T04:59:34.069Z,12.97
2022-09-28T05:02:02.042Z,13.63
2022-09-28T05:04:30.701Z,12.10
2022-09-28T05:06:58.497Z,12.37
2022-09-28T05:09:26.192Z,13.60
2022-09-28T05:11:54.210Z,15.90
2022-09-28T05:14:23.612Z,15.90
2022-09-28T05:16:51.417Z,17.20
2022-09-28T05:19:20.348Z,17.63
2022-09-28T05:21:49.288Z,16.63
2022-09-28T05:24:19.922Z,19.97
2022-09-28T05:26:47.688Z,21.20
2022-09-28T05:29:15.474Z,20.33
2022-09-28T05:31:44.874Z,21.33
2022-09-28T05:34:13.065Z,18.83
2022-09-28T05:36:42.934Z,21.80
2022-09-28T05:39:10.718Z,21.60
2022-09-28T05:41:38.734Z,21.23
2022-09-28T05:44:06.623Z,22.37
2022-09-28T05:46:34.330Z,15.97
2022-09-28T05:49:03.841Z,18.17
2022-09-28T05:51:31.620Z,19.27
2022-09-28T05:54:04.625Z,17.43
2022-09-28T05:56:34.027Z,15.97
2022-09-28T05:59:01.825Z,19.67
2022-09-28T06:01:30.264Z,18.13
2022-09-28T06:03:58.509Z,15.60
2022-09-28T06:06:28.081Z,16.97
2022-09-28T06:08:55.842Z,17.23
2022-09-28T06:11:28.117Z,17.27
2022-09-28T06:13:56.545Z,17.00
2022-09-28T06:16:25.796Z,16.53
2022-09-28T06:18:54.957Z,20.83
2022-09-28T06:21:22.683Z,18.50
2022-09-28T06:23:51.999Z,18.00
2022-09-28T06:26:19.896Z,17.50
2022-09-28T06:28:48.027Z,15.87
2022-09-28T06:31:15.892Z,14.97
2022-09-28T06:33:44.045Z,15.13
2022-09-28T06:36:13.833Z,14.20
2022-09-28T06:38:41.906Z,10.93
2022-09-28T06:41:12.140Z,12.47
2022-09-28T06:43:41.225Z,10.93
2022-09-28T06:46:09.882Z,12.03
2022-09-28T06:48:38.118Z,14.70
2022-09-28T06:51:07.173Z,14.67
2022-09-28T06:53:35.813Z,14.63
2022-09-28T06:56:05.071Z,12.97
2022-09-28T06:58:34.616Z,15.93
2022-09-28T07:01:03.657Z,14.60
2022-09-28T07:03:31.528Z,15.83
2022-09-28T07:05:59.463Z,14.43
2022-09-28T07:08:28.909Z,17.73
2022-09-28T07:10:57.315Z,13.60
2022-09-28T07:16:15.423Z,13.87
2022-09-28T07:18:43.242Z,14.53
2022-09-28T07:21:21.011Z,17.10
2022-09-28T07:23:54.293Z,16.43
2022-09-28T07:26:24.405Z,15.17
2022-09-28T07:28:52.677Z,11.87
2022-09-28T07:31:23.192Z,12.93
2022-09-28T07:33:54.288Z,11.57
2022-09-28T07:36:22.936Z,13.70
2022-09-28T07:38:50.929Z,9.20
2022-09-28T07:41:22.658Z,8.77
2022-09-28T07:43:51.116Z,8.93
2022-09-28T07:46:19.372Z,10.73
2022-09-28T07:48:52.610Z,7.27
2022-09-28T07:51:21.703Z,7.73
2022-09-28T07:53:50.857Z,6.33
2022-09-28T07:56:20.492Z,5.37
2022-09-28T07:58:48.829Z,6.03
2022-09-28T08:01:17.175Z,4.73
2022-09-28T08:03:47.342Z,4.27
2022-09-28T08:06:19.292Z,3.10
2022-09-28T08:08:49.412Z,3.67
2022-09-28T08:11:18.158Z,3.60
2022-09-28T08:13:47.498Z,3.23
2022-09-28T08:16:15.751Z,2.70
2022-09-28T08:18:43.555Z,2.70
2022-09-28T08:21:29.005Z,2.77
2022-09-28T08:23:58.305Z,2.83
2022-09-28T08:26:26.499Z,3.23
2022-09-28T08:28:54.477Z,2.93
2022-09-28T08:31:22.406Z,3.83
2022-09-28T08:33:53.809Z,2.80
2022-09-28T08:36:21.804Z,4.53
2022-09-28T08:38:49.654Z,3.70
2022-09-28T08:41:23.245Z,4.80
2022-09-28T08:43:55.436Z,4.07
2022-09-28T08:46:27.001Z,5.77
2022-09-28T08:49:20.710Z,5.77
2022-09-28T08:51:47.407Z,4.80
2022-09-28T08:54:21.540Z,4.63
2022-09-28T08:56:53.293Z,4.50
2022-09-28T08:59:22.131Z,3.73
2022-09-28T09:01:53.584Z,3.97
2022-09-28T09:04:23.709Z,4.53
2022-09-28T09:07:08.434Z,3.97
2022-09-28T09:09:41.615Z,2.40
2022-09-28T09:12:15.204Z,2.67
2022-09-28T09:14:55.322Z,2.37
2022-09-28T09:17:29.194Z,3.00
2022-09-28T09:20:04.450Z,2.70
2022-09-28T09:22:40.741Z,3.53
2022-09-28T09:25:16.450Z,3.67
2022-09-28T09:27:48.624Z,2.10
2022-09-28T09:30:20.110Z,3.33
2022-09-28T09:33:07.663Z,2.57
2022-09-28T09:35:49.717Z,2.60
2022-09-28T09:38:31.966Z,2.50
2022-09-28T09:41:05.588Z,3.10
2022-09-28T09:43:48.220Z,5.57
2022-09-28T09:46:19.986Z,3.30
2022-09-28T09:48:51.063Z,2.10
2022-09-28T09:51:25.130Z,2.40
2022-09-28T09:53:56.573Z,2.27
2022-09-28T09:56:28.837Z,4.40
2022-09-28T09:58:58.878Z,3.93
2022-09-28T10:01:33.883Z,3.73
2022-09-28T10:04:02.036Z,2.43
2022-09-28T10:06:32.850Z,2.47
2022-09-28T10:09:03.061Z,2.40
2022-09-28T10:11:34.210Z,2.33
2022-09-28T10:14:02.091Z,1.90
2022-09-28T10:16:31.553Z,1.60
2022-09-28T10:19:01.542Z,1.90
2022-09-28T10:21:30.334Z,2.00
2022-09-28T10:23:59.263Z,1.87
2022-09-28T10:26:29.783Z,3.20
2022-09-28T10:28:59.380Z,1.47
2022-09-28T10:31:39.407Z,2.00
2022-09-28T10:34:08.624Z,2.03
2022-09-28T10:36:46.102Z,2.20
2022-09-28T10:39:25.082Z,2.47
2022-09-28T10:41:53.126Z,1.63
2022-09-28T10:44:21.469Z,1.80
2022-09-28T10:46:58.344Z,1.70
2022-09-28T10:49:28.597Z,3.03
2022-09-28T10:51:57.442Z,2.80
2022-09-28T10:54:26.980Z,2.17
2022-09-28T10:56:55.799Z,1.73
2022-09-28T10:59:37.362Z,2.23
2022-09-28T11:02:15.490Z,1.80
2022-09-28T11:04:45.402Z,1.30
2022-09-28T11:07:18.206Z,1.70
2022-09-28T11:09:48.838Z,1.60
2022-09-28T11:12:19.726Z,1.57
2022-09-28T11:14:49.093Z,1.30
2022-09-28T11:17:18.828Z,1.07
2022-09-28T11:19:47.157Z,1.43
2022-09-28T11:22:26.327Z,1.43
2022-09-28T11:24:54.405Z,1.20
2022-09-28T11:27:23.636Z,1.37
2022-09-28T11:29:57.163Z,1.30
2022-09-28T11:32:30.169Z,1.17
2022-09-28T11:35:00.160Z,1.30
2022-09-28T11:37:46.154Z,1.50
2022-09-28T11:40:22.595Z,1.57
2022-09-28T11:42:53.934Z,1.30
2022-09-28T11:45:43.972Z,1.67
2022-09-28T11:48:15.681Z,1.60
2022-09-28T11:50:48.402Z,1.73
2022-09-28T11:53:31.376Z,1.60
2022-09-28T11:56:05.290Z,1.67
2022-09-28T11:58:38.728Z,1.48
2022-09-28T12:01:08.831Z,1.30
2022-09-28T12:03:41.844Z,1.50
2022-09-28T12:06:13.884Z,1.63
2022-09-28T12:08:44.468Z,1.20
2022-09-28T12:11:14.188Z,1.30
2022-09-28T12:13:44.512Z,1.50
2022-09-28T12:16:45.770Z,1.30
2022-09-28T12:19:06.960Z,1.25
2022-09-28T12:21:38.674Z,1.63
2022-09-28T12:24:11.599Z,1.55
2022-09-28T12:26:41.699Z,1.30
2022-09-28T12:29:14.337Z,1.70
2022-09-28T12:31:53.679Z,1.38
2022-09-28T12:34:23.663Z,1.55
2022-09-28T12:37:03.025Z,1.67
2022-09-28T12:39:56.518Z,1.65
2022-09-28T12:42:34.618Z,1.47
2022-09-28T12:45:23.534Z,1.67
2022-09-28T12:48:09.075Z,1.80
2022-09-28T12:50:47.669Z,1.90
2022-09-28T12:53:27.669Z,1.50
2022-09-28T12:55:59.092Z,1.50
2022-09-28T12:58:32.265Z,1.55
2022-09-28T13:01:04.984Z,1.60
2022-09-28T13:03:47.209Z,1.65
2022-09-28T13:06:32.640Z,1.50
2022-09-28T13:09:15.414Z,1.80
2022-09-28T13:11:49.314Z,2.30
2022-09-28T13:14:34.937Z,1.73
2022-09-28T13:17:06.158Z,2.20
2022-09-28T13:19:38.392Z,2.07
2022-09-28T13:22:11.390Z,1.55
2022-09-28T13:24:41.843Z,1.60
2022-09-28T13:27:14.750Z,1.63
2022-09-28T13:29:43.101Z,2.00
2022-09-28T13:32:12.446Z,2.23
2022-09-28T13:34:40.500Z,2.10
2022-09-28T13:37:20.398Z,1.80
2022-09-28T13:39:52.923Z,3.70
2022-09-28T13:42:26.530Z,2.03
2022-09-28T13:45:03.739Z,2.17
2022-09-28T13:47:45.080Z,1.90
2022-09-28T13:50:21.606Z,2.30
2022-09-28T13:52:53.544Z,1.95
2022-09-28T13:55:27.660Z,1.70
2022-09-28T13:57:59.829Z,2.27
2022-09-28T14:00:30.730Z,2.07
2022-09-28T14:03:01.912Z,2.03
2022-09-28T14:05:55.615Z,2.30
2022-09-28T14:08:29.038Z,2.53
2022-09-28T14:10:57.648Z,2.13
2022-09-28T14:13:44.346Z,1.90
2022-09-28T14:16:24.181Z,1.50
2022-09-28T14:18:55.093Z,1.85
2022-09-28T14:21:56.150Z,2.10
2022-09-28T14:24:28.663Z,1.98
2022-09-28T14:27:12.393Z,1.90
2022-09-28T14:29:40.428Z,1.70
2022-09-28T14:32:23.243Z,1.98
2022-09-28T14:34:58.253Z,1.10
2022-09-28T14:37:46.090Z,1.13
2022-09-28T14:40:38.028Z,1.35
2022-09-28T14:43:24.857Z,1.10
2022-09-28T14:45:54.692Z,1.20
2022-09-28T14:48:43.665Z,1.33
2022-09-28T14:51:30.280Z,1.67
2022-09-28T14:54:01.386Z,2.08
2022-09-28T14:56:32.795Z,2.03
2022-09-28T14:59:02.270Z,2.40
2022-09-28T15:01:30.625Z,1.80
2022-09-28T15:04:00.582Z,2.23
2022-09-28T15:06:44.533Z,1.60
2022-09-28T15:09:27.497Z,1.80
2022-09-28T15:12:01.929Z,2.07
2022-09-28T15:14:32.049Z,2.07
2022-09-28T15:17:03.688Z,1.83
2022-09-28T15:19:33.681Z,1.97
2022-09-28T15:22:01.671Z,1.67
2022-09-28T15:24:32.707Z,1.97
2022-09-28T15:27:02.439Z,2.10
2022-09-28T15:29:31.814Z,2.77
2022-09-28T15:32:00.595Z,4.53
2022-09-28T15:34:49.174Z,4.23
2022-09-28T15:37:19.159Z,2.50
2022-09-28T15:39:48.301Z,4.77
2022-09-28T15:42:18.599Z,6.10
2022-09-28T15:45:01.465Z,1.03
2022-09-28T15:47:29.816Z,2.03
2022-09-28T15:49:59.487Z,2.23
2022-09-28T15:52:29.701Z,2.23
2022-09-28T15:55:01.019Z,1.70
2022-09-28T15:57:33.596Z,2.00
2022-09-28T16:00:02.002Z,1.67
2022-09-28T16:02:30.041Z,2.20
2022-09-28T16:05:00.807Z,1.30
2022-09-28T16:07:32.321Z,1.30
2022-09-28T16:10:02.212Z,1.40
2022-09-28T16:12:35.043Z,1.60
2022-09-28T16:15:06.726Z,1.80
2022-09-28T16:17:35.674Z,1.63
2022-09-28T16:20:05.475Z,1.73
2022-09-28T16:22:34.308Z,1.73
2022-09-28T16:25:03.029Z,1.50
2022-09-28T16:27:40.876Z,1.50
2022-09-28T16:30:16.487Z,1.10
2022-09-28T16:32:50.528Z,1.30
2022-09-28T16:35:21.228Z,1.10
2022-09-28T16:37:51.115Z,1.03
2022-09-28T16:40:19.221Z,1.50
2022-09-28T16:42:49.465Z,0.93
2022-09-28T16:45:20.095Z,1.10
2022-09-28T16:47:53.078Z,1.00
2022-09-28T16:50:21.608Z,1.30
2022-09-28T16:53:08.132Z,1.60
2022-09-28T16:55:40.680Z,1.20
2022-09-28T16:58:13.200Z,1.00
2022-09-28T17:00:43.583Z,1.00
2022-09-28T17:03:13.952Z,1.00
2022-09-28T17:05:41.664Z,1.10
2022-09-28T17:08:12.518Z,1.20
2022-09-28T17:11:02.464Z,1.50
2022-09-28T17:13:35.021Z,1.00
2022-09-28T17:16:04.478Z,1.30
2022-09-28T17:18:32.339Z,1.10
2022-09-28T17:21:04.458Z,1.13
2022-09-28T17:23:32.688Z,1.50
2022-09-28T17:26:00.722Z,0.70
2022-09-28T17:28:31.478Z,1.43
2022-09-28T17:31:00.840Z,0.80
2022-09-28T17:33:29.706Z,1.00
2022-09-28T17:36:00.192Z,2.10
2022-09-28T17:38:29.125Z,1.90
2022-09-28T17:40:58.955Z,2.07
2022-09-28T17:43:26.956Z,1.57
2022-09-28T17:45:54.886Z,2.30
2022-09-28T17:48:24.479Z,1.87
2022-09-28T17:50:52.361Z,1.30
2022-09-28T17:53:20.317Z,1.80
2022-09-28T17:55:48.382Z,1.77
2022-09-28T17:58:18.263Z,2.00
2022-09-28T18:00:47.145Z,1.60
2022-09-28T18:03:16.700Z,1.50
2022-09-28T18:05:47.598Z,1.80
2022-09-28T18:08:16.859Z,2.40
2022-09-28T18:10:46.912Z,1.83
2022-09-28T18:13:15.255Z,3.60
2022-09-28T18:15:43.142Z,4.57
2022-09-28T18:18:13.082Z,6.47
2022-09-28T18:20:42.057Z,5.97
2022-09-28T18:23:11.652Z,5.97
2022-09-28T18:25:40.799Z,6.60
2022-09-28T18:28:08.526Z,6.97
2022-09-28T18:30:39.415Z,10.53
2022-09-28T18:33:07.459Z,12.47
2022-09-28T18:35:35.535Z,9.13
2022-09-28T18:38:05.298Z,8.83
2022-09-28T18:40:34.673Z,6.93
2022-09-28T18:43:02.547Z,6.27
2022-09-28T18:45:30.526Z,11.17
2022-09-28T18:47:58.648Z,8.93
2022-09-28T18:50:26.887Z,9.43
2022-09-28T18:52:55.203Z,10.87
2022-09-28T18:55:22.852Z,9.23
2022-09-28T18:57:52.536Z,3.80
2022-09-28T19:00:21.417Z,4.33
2022-09-28T19:02:49.977Z,4.50
2022-09-28T19:05:18.963Z,7.33
2022-09-28T19:07:46.606Z,4.30
2022-09-28T19:10:14.569Z,7.13
2022-09-28T19:12:42.273Z,4.70
2022-09-28T19:15:11.792Z,3.67
2022-09-28T19:17:39.907Z,4.97
2022-09-28T19:20:07.989Z,4.13
2022-09-28T19:22:35.644Z,4.20
2022-09-28T19:25:03.606Z,6.47
2022-09-28T19:27:31.396Z,5.83
2022-09-28T19:29:59.091Z,6.47
2022-09-28T19:32:28.344Z,5.50
2022-09-28T19:34:56.338Z,3.50
2022-09-28T19:37:24.103Z,2.80
2022-09-28T19:39:51.790Z,5.47
2022-09-28T19:42:19.567Z,4.63
2022-09-28T19:44:47.738Z,6.17
2022-09-28T19:47:18.876Z,5.00
2022-09-28T19:49:48.042Z,5.27
2022-09-28T19:52:17.504Z,6.87
2022-09-28T19:54:46.304Z,5.20
2022-09-28T19:57:16.299Z,5.20
2022-09-28T19:59:44.175Z,5.20
2022-09-28T20:02:14.374Z,5.00
2022-09-28T20:04:42.357Z,3.03
2022-09-28T20:07:11.811Z,4.77
2022-09-28T20:09:43.481Z,4.93
2022-09-28T20:12:11.400Z,4.80
2022-09-28T20:14:40.493Z,4.50
2022-09-28T20:17:08.736Z,2.77
2022-09-28T20:19:36.564Z,3.70
2022-09-28T20:22:05.026Z,4.33
2022-09-28T20:24:34.122Z,4.33
2022-09-28T20:27:02.595Z,3.93
2022-09-28T20:29:31.735Z,2.43
2022-09-28T20:32:00.495Z,2.73
2022-09-28T20:34:28.396Z,3.57
2022-09-28T20:36:56.527Z,3.80
2022-09-28T20:39:24.499Z,3.43
2022-09-28T20:41:55.133Z,3.70
2022-09-28T20:44:23.175Z,3.37
2022-09-28T20:46:51.164Z,3.70
2022-09-28T20:49:19.122Z,2.60
2022-09-28T20:51:49.324Z,2.97
2022-09-28T20:54:17.301Z,2.63
2022-09-28T20:56:47.603Z,3.23
2022-09-28T20:59:16.967Z,3.40
2022-09-28T21:01:45.304Z,3.70
2022-09-28T21:04:13.365Z,3.90
2022-09-28T21:06:44.461Z,4.50
2022-09-28T21:09:13.739Z,5.23
2022-09-28T21:11:41.620Z,5.73
2022-09-28T21:14:10.566Z,5.57
2022-09-28T21:16:40.449Z,3.90
2022-09-28T21:19:08.220Z,4.60
2022-09-28T21:21:35.988Z,5.07
2022-09-28T21:24:03.839Z,4.67
2022-09-28T21:26:31.999Z,4.77
2022-09-28T21:29:00.368Z,5.83
2022-09-28T21:31:30.302Z,5.70
2022-09-28T21:34:00.826Z,5.47
2022-09-28T21:36:29.081Z,5.13
2022-09-28T21:38:57.572Z,4.80
2022-09-28T21:41:25.688Z,4.60
2022-09-28T21:43:54.174Z,5.17
2022-09-28T21:46:22.210Z,3.70
2022-09-28T21:48:52.521Z,4.27
2022-09-28T21:51:22.006Z,3.80
2022-09-28T21:53:50.360Z,4.00
2022-09-28T21:56:18.159Z,3.97
2022-09-28T21:58:45.924Z,4.00
2022-09-28T22:01:15.690Z,3.70
2022-09-28T22:03:44.109Z,4.27
2022-09-28T22:06:12.482Z,4.37
2022-09-28T22:08:41.927Z,4.27
2022-09-28T22:11:10.485Z,3.43
2022-09-28T22:13:40.809Z,3.40
2022-09-28T22:16:08.696Z,3.63
2022-09-28T22:18:36.849Z,3.03
2022-09-28T22:21:06.581Z,3.30
2022-09-28T22:23:34.687Z,3.10
2022-09-28T22:26:05.388Z,3.30
2022-09-28T22:28:33.214Z,3.73
2022-09-28T22:31:01.294Z,4.00
2022-09-28T22:33:29.122Z,3.80
2022-09-28T22:35:57.248Z,3.30
2022-09-28T22:38:25.982Z,3.50
2022-09-28T22:40:55.041Z,3.53
2022-09-28T22:43:24.868Z,3.67
2022-09-28T22:46:01.569Z,3.40
2022-09-28T22:48:29.196Z,4.00
2022-09-28T22:50:57.238Z,4.03
2022-09-28T22:53:25.603Z,3.77
2022-09-28T22:55:53.276Z,3.80
2022-09-28T22:58:21.819Z,3.63
2022-09-28T23:00:51.305Z,4.10
2022-09-28T23:03:19.224Z,4.40
2022-09-28T23:05:52.898Z,3.60
2022-09-28T23:08:20.731Z,3.97
2022-09-28T23:10:48.747Z,4.13
2022-09-28T23:13:16.729Z,4.60
2022-09-28T23:15:45.766Z,3.83
2022-09-28T23:18:14.961Z,4.57
2022-09-28T23:20:42.681Z,5.00
2022-09-28T23:23:10.537Z,3.93
2022-09-28T23:25:38.244Z,3.97
2022-09-28T23:28:06.423Z,3.73
2022-09-28T23:30:34.653Z,4.57
2022-09-28T23:33:02.330Z,4.20
2022-09-28T23:35:31.818Z,4.30
2022-09-28T23:37:59.947Z,4.53
2022-09-28T23:40:27.711Z,5.03
2022-09-28T23:42:55.751Z,4.93
2022-09-28T23:45:23.711Z,5.03
2022-09-28T23:47:51.561Z,4.43
2022-09-28T23:50:21.403Z,4.23
2022-09-28T23:52:50.818Z,3.10
2022-09-28T23:55:19.144Z,5.00
2022-09-28T23:57:47.205Z,4.13
